sensor_id;sensor_type;location;lat;lon;timestamp;pressure;altitude;pressure_sealevel;temperature
40199;BMP280;25906;43.536;26.068;2022-08-19T00:02:36;98260.69;;;23.13
40199;BMP280;25906;43.536;26.068;2022-08-19T00:05:22;98260.13;;;23.22
40199;BMP280;25906;43.536;26.068;2022-08-19T00:08:08;98261.50;;;23.21
40199;BMP280;25906;43.536;26.068;2022-08-19T00:10:53;98271.09;;;23.16
40199;BMP280;25906;43.536;26.068;2022-08-19T00:13:39;98277.22;;;23.11
40199;BMP280;25906;43.536;26.068;2022-08-19T00:16:25;98269.59;;;23.06
40199;BMP280;25906;43.536;26.068;2022-08-19T00:19:11;98263.28;;;23.01
40199;BMP280;25906;43.536;26.068;2022-08-19T00:21:56;98270.94;;;23.05
40199;BMP280;25906;43.536;26.068;2022-08-19T00:24:42;98268.63;;;22.89
40199;BMP280;25906;43.536;26.068;2022-08-19T00:27:28;98261.88;;;22.98
40199;BMP280;25906;43.536;26.068;2022-08-19T00:30:14;98263.69;;;22.82
40199;BMP280;25906;43.536;26.068;2022-08-19T00:32:59;98270.56;;;22.81
40199;BMP280;25906;43.536;26.068;2022-08-19T00:35:45;98260.16;;;22.76
40199;BMP280;25906;43.536;26.068;2022-08-19T00:38:30;98260.16;;;22.76
40199;BMP280;25906;43.536;26.068;2022-08-19T00:41:17;98257.34;;;22.74
40199;BMP280;25906;43.536;26.068;2022-08-19T00:44:13;98270.28;;;22.63
40199;BMP280;25906;43.536;26.068;2022-08-19T00:46:59;98267.72;;;22.75
40199;BMP280;25906;43.536;26.068;2022-08-19T00:49:48;98259.53;;;22.81
40199;BMP280;25906;43.536;26.068;2022-08-19T00:52:40;98263.63;;;22.80
40199;BMP280;25906;43.536;26.068;2022-08-19T00:55:31;98276.03;;;22.77
40199;BMP280;25906;43.536;26.068;2022-08-19T00:58:19;98262.91;;;22.77
40199;BMP280;25906;43.536;26.068;2022-08-19T01:01:05;98269.06;;;22.72
40199;BMP280;25906;43.536;26.068;2022-08-19T01:03:52;98269.78;;;22.75
40199;BMP280;25906;43.536;26.068;2022-08-19T01:06:39;98269.00;;;22.70
40199;BMP280;25906;43.536;26.068;2022-08-19T01:09:26;98266.22;;;22.66
40199;BMP280;25906;43.536;26.068;2022-08-19T01:12:11;98266.13;;;22.62
40199;BMP280;25906;43.536;26.068;2022-08-19T01:14:58;98261.31;;;22.63
40199;BMP280;25906;43.536;26.068;2022-08-19T01:17:45;98256.44;;;22.59
40199;BMP280;25906;43.536;26.068;2022-08-19T01:20:31;98251.59;;;22.58
40199;BMP280;25906;43.536;26.068;2022-08-19T01:23:18;98257.66;;;22.50
40199;BMP280;25906;43.536;26.068;2022-08-19T01:26:04;98258.25;;;22.45
40199;BMP280;25906;43.536;26.068;2022-08-19T01:28:51;98254.94;;;22.52
40199;BMP280;25906;43.536;26.068;2022-08-19T01:31:37;98252.91;;;22.53
40199;BMP280;25906;43.536;26.068;2022-08-19T01:34:24;98260.41;;;22.48
40199;BMP280;25906;43.536;26.068;2022-08-19T01:37:11;98256.19;;;22.45
40199;BMP280;25906;43.536;26.068;2022-08-19T01:39:57;98260.97;;;22.43
40199;BMP280;25906;43.536;26.068;2022-08-19T01:42:42;98260.13;;;22.33
40199;BMP280;25906;43.536;26.068;2022-08-19T01:45:31;98266.94;;;22.30
40199;BMP280;25906;43.536;26.068;2022-08-19T01:48:16;98270.34;;;22.26
40199;BMP280;25906;43.536;26.068;2022-08-19T01:51:02;98266.16;;;22.23
40199;BMP280;25906;43.536;26.068;2022-08-19T01:53:49;98271.78;;;22.29
40199;BMP280;25906;43.536;26.068;2022-08-19T01:56:35;98268.97;;;22.27
40199;BMP280;25906;43.536;26.068;2022-08-19T01:59:22;98270.44;;;22.30
40199;BMP280;25906;43.536;26.068;2022-08-19T02:02:09;98266.22;;;22.27
40199;BMP280;25906;43.536;26.068;2022-08-19T02:04:54;98265.47;;;22.23
40199;BMP280;25906;43.536;26.068;2022-08-19T02:07:40;98274.44;;;22.23
40199;BMP280;25906;43.536;26.068;2022-08-19T02:10:25;98273.72;;;22.21
40199;BMP280;25906;43.536;26.068;2022-08-19T02:13:12;98268.09;;;22.17
40199;BMP280;25906;43.536;26.068;2022-08-19T02:15:58;98270.16;;;22.16
40199;BMP280;25906;43.536;26.068;2022-08-19T02:18:44;98275.69;;;22.16
40199;BMP280;25906;43.536;26.068;2022-08-19T02:21:30;98286.72;;;22.16
40199;BMP280;25906;43.536;26.068;2022-08-19T02:24:16;98284.53;;;22.11
40199;BMP280;25906;43.536;26.068;2022-08-19T02:27:01;98290.72;;;22.09
40199;BMP280;25906;43.536;26.068;2022-08-19T02:29:47;98296.81;;;22.02
40199;BMP280;25906;43.536;26.068;2022-08-19T02:32:34;98292.72;;;22.05
40199;BMP280;25906;43.536;26.068;2022-08-19T02:35:20;98302.31;;;22.02
40199;BMP280;25906;43.536;26.068;2022-08-19T02:38:05;98293.25;;;21.98
40199;BMP280;25906;43.536;26.068;2022-08-19T02:41:19;98295.31;;;21.97
40199;BMP280;25906;43.536;26.068;2022-08-19T02:44:05;98295.22;;;21.93
40199;BMP280;25906;43.536;26.068;2022-08-19T02:46:50;98300.03;;;21.93
40199;BMP280;25906;43.536;26.068;2022-08-19T02:49:36;98298.66;;;21.92
40199;BMP280;25906;43.536;26.068;2022-08-19T02:52:21;98299.31;;;21.90
40199;BMP280;25906;43.536;26.068;2022-08-19T02:55:08;98299.31;;;21.90
40199;BMP280;25906;43.536;26.068;2022-08-19T02:57:54;98288.91;;;21.87
40199;BMP280;25906;43.536;26.068;2022-08-19T03:00:51;98299.09;;;21.78
40199;BMP280;25906;43.536;26.068;2022-08-19T03:03:37;98295.44;;;21.70
40199;BMP280;25906;43.536;26.068;2022-08-19T03:06:23;98291.28;;;21.67
40199;BMP280;25906;43.536;26.068;2022-08-19T03:09:09;98302.44;;;21.75
40199;BMP280;25906;43.536;26.068;2022-08-19T03:11:55;98302.31;;;21.69
40199;BMP280;25906;43.536;26.068;2022-08-19T03:14:40;98302.31;;;21.69
40199;BMP280;25906;43.536;26.068;2022-08-19T03:17:26;98301.00;;;21.72
40199;BMP280;25906;43.536;26.068;2022-08-19T03:20:11;98310.69;;;21.73
40199;BMP280;25906;43.536;26.068;2022-08-19T03:22:57;98309.31;;;21.74
40199;BMP280;25906;43.536;26.068;2022-08-19T03:25:45;98303.09;;;21.73
40199;BMP280;25906;43.536;26.068;2022-08-19T03:28:31;98308.69;;;21.77
40199;BMP280;25906;43.536;26.068;2022-08-19T03:31:22;98311.50;;;21.79
40199;BMP280;25906;43.536;26.068;2022-08-19T03:34:10;98312.06;;;21.74
40199;BMP280;25906;43.536;26.068;2022-08-19T03:48:44;98326.81;;;21.86
40199;BMP280;25906;43.536;26.068;2022-08-19T03:51:33;98324.03;;;21.86
40199;BMP280;25906;43.536;26.068;2022-08-19T03:54:21;98329.66;;;21.92
40199;BMP280;25906;43.536;26.068;2022-08-19T03:57:08;98328.97;;;21.92
40199;BMP280;25906;43.536;26.068;2022-08-19T03:59:54;98327.50;;;21.87
40199;BMP280;25906;43.536;26.068;2022-08-19T04:02:41;98329.13;;;22.00
40199;BMP280;25906;43.536;26.068;2022-08-19T04:05:28;98336.94;;;22.09
40199;BMP280;25906;43.536;26.068;2022-08-19T04:08:14;98333.50;;;22.10
40199;BMP280;25906;43.536;26.068;2022-08-19T04:11:07;98343.88;;;22.12
40199;BMP280;25906;43.536;26.068;2022-08-19T04:13:54;98337.91;;;22.25
40199;BMP280;25906;43.536;26.068;2022-08-19T04:16:40;98340.16;;;22.33
40199;BMP280;25906;43.536;26.068;2022-08-19T04:19:25;98341.59;;;22.38
40199;BMP280;25906;43.536;26.068;2022-08-19T04:22:11;98359.00;;;22.46
40199;BMP280;25906;43.536;26.068;2022-08-19T04:24:56;98355.63;;;22.51
40199;BMP280;25906;43.536;26.068;2022-08-19T04:27:42;98358.50;;;22.57
40199;BMP280;25906;43.536;26.068;2022-08-19T04:30:40;98362.09;;;22.64
40199;BMP280;25906;43.536;26.068;2022-08-19T04:33:25;98364.88;;;22.66
40199;BMP280;25906;43.536;26.068;2022-08-19T04:36:20;98365.69;;;22.72
40199;BMP280;25906;43.536;26.068;2022-08-19T04:39:12;98354.72;;;22.76
40199;BMP280;25906;43.536;26.068;2022-08-19T04:41:58;98365.06;;;22.77
40199;BMP280;25906;43.536;26.068;2022-08-19T04:45:03;98363.09;;;22.82
40199;BMP280;25906;43.536;26.068;2022-08-19T04:47:49;98360.44;;;22.88
40199;BMP280;25906;43.536;26.068;2022-08-19T04:50:34;98361.84;;;22.89
40199;BMP280;25906;43.536;26.068;2022-08-19T04:53:20;98362.56;;;22.91
40199;BMP280;25906;43.536;26.068;2022-08-19T04:56:11;98359.03;;;22.87
40199;BMP280;25906;43.536;26.068;2022-08-19T04:58:57;98357.88;;;22.61
40199;BMP280;25906;43.536;26.068;2022-08-19T05:01:42;98356.69;;;22.33
40199;BMP280;25906;43.536;26.068;2022-08-19T05:04:28;98357.44;;;22.35
40199;BMP280;25906;43.536;26.068;2022-08-19T05:07:16;98360.97;;;22.41
40199;BMP280;25906;43.536;26.068;2022-08-19T05:10:03;98368.91;;;22.61
40199;BMP280;25906;43.536;26.068;2022-08-19T05:12:49;98368.47;;;22.74
40199;BMP280;25906;43.536;26.068;2022-08-19T05:15:35;98372.09;;;22.84
40199;BMP280;25906;43.536;26.068;2022-08-19T05:18:21;98362.38;;;22.79
40199;BMP280;25906;43.536;26.068;2022-08-19T05:21:26;98357.13;;;22.97
40199;BMP280;25906;43.536;26.068;2022-08-19T05:24:30;98364.00;;;22.96
40199;BMP280;25906;43.536;26.068;2022-08-19T05:27:19;98362.81;;;23.07
40199;BMP280;25906;43.536;26.068;2022-08-19T05:30:05;98366.97;;;23.08
40199;BMP280;25906;43.536;26.068;2022-08-19T05:32:50;98359.00;;;23.28
40199;BMP280;25906;43.536;26.068;2022-08-19T05:35:37;98364.03;;;23.41
40199;BMP280;25906;43.536;26.068;2022-08-19T05:38:22;98368.50;;;23.66
40199;BMP280;25906;43.536;26.068;2022-08-19T05:41:13;98367.31;;;23.81
40199;BMP280;25906;43.536;26.068;2022-08-19T05:44:04;98371.88;;;24.11
40199;BMP280;25906;43.536;26.068;2022-08-19T05:46:51;98370.63;;;24.26
40199;BMP280;25906;43.536;26.068;2022-08-19T05:49:40;98372.94;;;24.47
40199;BMP280;25906;43.536;26.068;2022-08-19T05:52:25;98368.00;;;24.40
40199;BMP280;25906;43.536;26.068;2022-08-19T05:55:12;98364.72;;;24.59
40199;BMP280;25906;43.536;26.068;2022-08-19T05:57:57;98376.03;;;24.83
40199;BMP280;25906;43.536;26.068;2022-08-19T06:00:43;98388.00;;;25.07
40199;BMP280;25906;43.536;26.068;2022-08-19T06:03:32;98387.31;;;25.10
40199;BMP280;25906;43.536;26.068;2022-08-19T06:06:19;98379.75;;;25.21
40199;BMP280;25906;43.536;26.068;2022-08-19T06:09:06;98374.22;;;25.23
40199;BMP280;25906;43.536;26.068;2022-08-19T06:11:55;98372.34;;;25.53
40199;BMP280;25906;43.536;26.068;2022-08-19T06:14:42;98375.84;;;25.57
40199;BMP280;25906;43.536;26.068;2022-08-19T06:17:29;98372.25;;;25.41
40199;BMP280;25906;43.536;26.068;2022-08-19T06:20:15;98366.13;;;25.56
40199;BMP280;25906;43.536;26.068;2022-08-19T06:23:01;98368.97;;;25.72
40199;BMP280;25906;43.536;26.068;2022-08-19T06:25:46;98374.56;;;25.88
40199;BMP280;25906;43.536;26.068;2022-08-19T06:28:32;98364.13;;;25.76
40199;BMP280;25906;43.536;26.068;2022-08-19T06:31:21;98364.78;;;25.73
40199;BMP280;25906;43.536;26.068;2022-08-19T06:34:07;98369.09;;;26.06
40199;BMP280;25906;43.536;26.068;2022-08-19T06:36:53;98346.22;;;26.07
40199;BMP280;25906;43.536;26.068;2022-08-19T06:39:40;98357.31;;;26.17
40199;BMP280;25906;43.536;26.068;2022-08-19T06:42:26;98354.56;;;26.33
40199;BMP280;25906;43.536;26.068;2022-08-19T06:45:12;98351.13;;;26.64
40199;BMP280;25906;43.536;26.068;2022-08-19T06:47:57;98347.66;;;26.81
40199;BMP280;25906;43.536;26.068;2022-08-19T06:50:42;98358.75;;;26.85
40199;BMP280;25906;43.536;26.068;2022-08-19T06:53:28;98351.78;;;26.96
40199;BMP280;25906;43.536;26.068;2022-08-19T06:56:15;98351.78;;;26.96
40199;BMP280;25906;43.536;26.068;2022-08-19T06:59:14;98353.22;;;26.75
40199;BMP280;25906;43.536;26.068;2022-08-19T07:02:03;98355.97;;;26.79
40199;BMP280;25906;43.536;26.068;2022-08-19T07:04:50;98352.47;;;27.08
40199;BMP280;25906;43.536;26.068;2022-08-19T07:07:36;98353.16;;;27.16
40199;BMP280;25906;43.536;26.068;2022-08-19T07:10:21;98352.41;;;27.34
40199;BMP280;25906;43.536;26.068;2022-08-19T07:13:06;98350.25;;;27.54
40199;BMP280;25906;43.536;26.068;2022-08-19T07:15:53;98353.03;;;27.48
40199;BMP280;25906;43.536;26.068;2022-08-19T07:18:39;98352.41;;;27.38
40199;BMP280;25906;43.536;26.068;2022-08-19T07:21:27;98346.84;;;27.44
40199;BMP280;25906;43.536;26.068;2022-08-19T07:24:13;98351.66;;;27.55
40199;BMP280;25906;43.536;26.068;2022-08-19T07:26:59;98354.47;;;27.43
40199;BMP280;25906;43.536;26.068;2022-08-19T07:29:46;98358.59;;;27.54
40199;BMP280;25906;43.536;26.068;2022-08-19T07:32:31;98354.44;;;27.47
40199;BMP280;25906;43.536;26.068;2022-08-19T07:35:17;98365.50;;;27.65
40199;BMP280;25906;43.536;26.068;2022-08-19T07:38:04;98369.59;;;27.83
40199;BMP280;25906;43.536;26.068;2022-08-19T07:40:50;98363.31;;;27.87
40199;BMP280;25906;43.536;26.068;2022-08-19T07:43:37;98364.84;;;27.60
40199;BMP280;25906;43.536;26.068;2022-08-19T07:46:22;98365.44;;;27.83
40199;BMP280;25906;43.536;26.068;2022-08-19T07:49:08;98358.25;;;28.19
40199;BMP280;25906;43.536;26.068;2022-08-19T07:52:03;98357.75;;;27.89
40199;BMP280;25906;43.536;26.068;2022-08-19T07:54:49;98360.19;;;28.42
40199;BMP280;25906;43.536;26.068;2022-08-19T07:57:35;98367.94;;;28.28
40199;BMP280;25906;43.536;26.068;2022-08-19T08:00:20;98366.00;;;28.03
40199;BMP280;25906;43.536;26.068;2022-08-19T08:03:06;98364.28;;;28.51
40199;BMP280;25906;43.536;26.068;2022-08-19T08:05:53;98362.13;;;28.59
40199;BMP280;25906;43.536;26.068;2022-08-19T08:08:57;98372.84;;;29.07
40199;BMP280;25906;43.536;26.068;2022-08-19T08:12:09;98370.75;;;29.09
40199;BMP280;25906;43.536;26.068;2022-08-19T08:14:58;98372.59;;;29.30
40199;BMP280;25906;43.536;26.068;2022-08-19T08:17:44;98358.97;;;29.01
40199;BMP280;25906;43.536;26.068;2022-08-19T08:20:30;98353.41;;;28.97
40199;BMP280;25906;43.536;26.068;2022-08-19T08:23:16;98357.84;;;29.36
40199;BMP280;25906;43.536;26.068;2022-08-19T08:26:07;98354.97;;;29.46
40199;BMP280;25906;43.536;26.068;2022-08-19T08:28:52;98368.59;;;29.69
40199;BMP280;25906;43.536;26.068;2022-08-19T08:31:39;98360.06;;;29.81
40199;BMP280;25906;43.536;26.068;2022-08-19T08:34:25;98364.38;;;30.22
40199;BMP280;25906;43.536;26.068;2022-08-19T08:37:11;98363.31;;;29.99
40199;BMP280;25906;43.536;26.068;2022-08-19T08:39:56;98361.22;;;29.98
40199;BMP280;25906;43.536;26.068;2022-08-19T08:42:51;98362.50;;;30.07
40199;BMP280;25906;43.536;26.068;2022-08-19T08:45:47;98357.75;;;29.46
40199;BMP280;25906;43.536;26.068;2022-08-19T08:51:51;98350.16;;;29.38
40199;BMP280;25906;43.536;26.068;2022-08-19T08:54:44;98351.28;;;29.61
40199;BMP280;25906;43.536;26.068;2022-08-19T08:57:51;98355.16;;;29.84
40199;BMP280;25906;43.536;26.068;2022-08-19T09:00:46;98346.88;;;30.23
40199;BMP280;25906;43.536;26.068;2022-08-19T09:03:31;98359.31;;;30.32
40199;BMP280;25906;43.536;26.068;2022-08-19T09:09:20;98341.19;;;30.29
40199;BMP280;25906;43.536;26.068;2022-08-19T09:12:39;98342.75;;;30.98
40199;BMP280;25906;43.536;26.068;2022-08-19T09:15:36;98344.47;;;31.16
40199;BMP280;25906;43.536;26.068;2022-08-19T09:18:25;98348.78;;;31.11
40199;BMP280;25906;43.536;26.068;2022-08-19T09:21:10;98349.56;;;31.41
40199;BMP280;25906;43.536;26.068;2022-08-19T09:23:55;98338.38;;;31.41
40199;BMP280;25906;43.536;26.068;2022-08-19T09:26:42;98352.06;;;30.87
40199;BMP280;25906;43.536;26.068;2022-08-19T09:29:28;98357.81;;;30.79
40199;BMP280;25906;43.536;26.068;2022-08-19T09:32:15;98352.00;;;30.51
40199;BMP280;25906;43.536;26.068;2022-08-19T09:35:01;98352.66;;;30.55
40199;BMP280;25906;43.536;26.068;2022-08-19T09:37:46;98340.25;;;30.83
40199;BMP280;25906;43.536;26.068;2022-08-19T09:40:32;98348.50;;;30.88
40199;BMP280;25906;43.536;26.068;2022-08-19T09:43:17;98335.00;;;31.01
40199;BMP280;25906;43.536;26.068;2022-08-19T09:46:04;98342.53;;;31.10
40199;BMP280;25906;43.536;26.068;2022-08-19T09:48:57;98328.47;;;31.12
40199;BMP280;25906;43.536;26.068;2022-08-19T09:51:43;98337.81;;;31.35
40199;BMP280;25906;43.536;26.068;2022-08-19T09:54:29;98336.94;;;31.10
40199;BMP280;25906;43.536;26.068;2022-08-19T09:57:16;98341.81;;;31.10
40199;BMP280;25906;43.536;26.068;2022-08-19T10:00:06;98337.19;;;30.96
40199;BMP280;25906;43.536;26.068;2022-08-19T10:02:52;98335.13;;;31.29
40199;BMP280;25906;43.536;26.068;2022-08-19T10:05:38;98328.56;;;31.42
40199;BMP280;25906;43.536;26.068;2022-08-19T10:08:36;98338.88;;;31.16
40199;BMP280;25906;43.536;26.068;2022-08-19T10:11:22;98331.44;;;31.04
40199;BMP280;25906;43.536;26.068;2022-08-19T10:14:08;98332.50;;;31.21
40199;BMP280;25906;43.536;26.068;2022-08-19T10:16:53;98327.28;;;31.35
40199;BMP280;25906;43.536;26.068;2022-08-19T10:19:39;98329.50;;;31.31
40199;BMP280;25906;43.536;26.068;2022-08-19T10:22:25;98329.84;;;31.13
40199;BMP280;25906;43.536;26.068;2022-08-19T10:25:10;98317.00;;;30.92
40199;BMP280;25906;43.536;26.068;2022-08-19T10:27:57;98320.00;;;31.16
40199;BMP280;25906;43.536;26.068;2022-08-19T10:30:43;98323.53;;;30.81
40199;BMP280;25906;43.536;26.068;2022-08-19T10:33:28;98322.41;;;30.24
40199;BMP280;25906;43.536;26.068;2022-08-19T10:36:19;98309.72;;;30.71
40199;BMP280;25906;43.536;26.068;2022-08-19T10:39:08;98324.25;;;31.13
40199;BMP280;25906;43.536;26.068;2022-08-19T10:41:54;98325.78;;;31.06
40199;BMP280;25906;43.536;26.068;2022-08-19T10:44:41;98321.03;;;30.99
40199;BMP280;25906;43.536;26.068;2022-08-19T10:47:27;98319.03;;;31.61
40199;BMP280;25906;43.536;26.068;2022-08-19T10:50:12;98316.56;;;31.46
40199;BMP280;25906;43.536;26.068;2022-08-19T10:53:16;98311.78;;;31.72
40199;BMP280;25906;43.536;26.068;2022-08-19T10:56:02;98309.22;;;31.62
40199;BMP280;25906;43.536;26.068;2022-08-19T10:59:06;98317.28;;;31.46
40199;BMP280;25906;43.536;26.068;2022-08-19T11:01:51;98307.50;;;31.75
40199;BMP280;25906;43.536;26.068;2022-08-19T11:04:38;98311.38;;;31.90
40199;BMP280;25906;43.536;26.068;2022-08-19T11:07:24;98308.34;;;31.70
40199;BMP280;25906;43.536;26.068;2022-08-19T11:10:13;98309.00;;;31.40
40199;BMP280;25906;43.536;26.068;2022-08-19T11:12:59;98311.50;;;30.88
40199;BMP280;25906;43.536;26.068;2022-08-19T11:15:45;98304.00;;;31.13
40199;BMP280;25906;43.536;26.068;2022-08-19T11:18:34;98303.91;;;31.49
40199;BMP280;25906;43.536;26.068;2022-08-19T11:21:34;98300.19;;;31.88
40199;BMP280;25906;43.536;26.068;2022-08-19T11:24:24;98297.28;;;31.64
40199;BMP280;25906;43.536;26.068;2022-08-19T11:27:12;98302.16;;;31.63
40199;BMP280;25906;43.536;26.068;2022-08-19T11:29:57;98297.63;;;31.48
40199;BMP280;25906;43.536;26.068;2022-08-19T11:32:43;98288.94;;;31.90
40199;BMP280;25906;43.536;26.068;2022-08-19T11:35:28;98284.47;;;31.41
40199;BMP280;25906;43.536;26.068;2022-08-19T11:38:14;98291.25;;;31.19
40199;BMP280;25906;43.536;26.068;2022-08-19T11:41:03;98286.28;;;30.90
40199;BMP280;25906;43.536;26.068;2022-08-19T11:43:53;98279.00;;;31.37
40199;BMP280;25906;43.536;26.068;2022-08-19T11:46:41;98273.44;;;31.65
40199;BMP280;25906;43.536;26.068;2022-08-19T11:49:28;98276.75;;;32.01
40199;BMP280;25906;43.536;26.068;2022-08-19T11:52:14;98277.81;;;31.58
40199;BMP280;25906;43.536;26.068;2022-08-19T11:54:59;98278.28;;;31.04
40199;BMP280;25906;43.536;26.068;2022-08-19T11:57:45;98283.44;;;31.24
40199;BMP280;25906;43.536;26.068;2022-08-19T12:00:32;98280.31;;;31.08
40199;BMP280;25906;43.536;26.068;2022-08-19T12:03:19;98269.97;;;31.32
40199;BMP280;25906;43.536;26.068;2022-08-19T12:06:06;98270.91;;;31.83
40199;BMP280;25906;43.536;26.068;2022-08-19T12:08:51;98263.72;;;31.90
40199;BMP280;25906;43.536;26.068;2022-08-19T12:11:38;98265.97;;;32.12
40199;BMP280;25906;43.536;26.068;2022-08-19T12:14:24;98269.88;;;32.22
40199;BMP280;25906;43.536;26.068;2022-08-19T12:17:09;98265.09;;;32.45
40199;BMP280;25906;43.536;26.068;2022-08-19T12:19:56;98256.69;;;32.45
40199;BMP280;25906;43.536;26.068;2022-08-19T12:22:42;98256.69;;;32.19
40199;BMP280;25906;43.536;26.068;2022-08-19T12:25:28;98260.13;;;31.65
40199;BMP280;25906;43.536;26.068;2022-08-19T13:01:18;98242.06;;;30.96
40199;BMP280;25906;43.536;26.068;2022-08-19T13:04:04;98241.47;;;30.92
40199;BMP280;25906;43.536;26.068;2022-08-19T13:06:49;98243.13;;;30.79
40199;BMP280;25906;43.536;26.068;2022-08-19T13:09:35;98242.34;;;30.83
40199;BMP280;25906;43.536;26.068;2022-08-19T13:12:21;98231.91;;;31.13
40199;BMP280;25906;43.536;26.068;2022-08-19T13:15:10;98229.84;;;31.44
40199;BMP280;25906;43.536;26.068;2022-08-19T13:17:55;98233.75;;;31.56
40199;BMP280;25906;43.536;26.068;2022-08-19T13:20:40;98233.75;;;31.84
40199;BMP280;25906;43.536;26.068;2022-08-19T13:23:26;98232.47;;;32.08
40199;BMP280;25906;43.536;26.068;2022-08-19T13:26:11;98241.88;;;31.94
40199;BMP280;25906;43.536;26.068;2022-08-19T13:28:57;98233.16;;;31.80
40199;BMP280;25906;43.536;26.068;2022-08-19T13:32:02;98234.38;;;31.59
40199;BMP280;25906;43.536;26.068;2022-08-19T13:35:06;98226.03;;;31.55
40199;BMP280;25906;43.536;26.068;2022-08-19T13:37:51;98228.56;;;31.67
40199;BMP280;25906;43.536;26.068;2022-08-19T13:40:37;98226.09;;;31.83
40199;BMP280;25906;43.536;26.068;2022-08-19T13:43:25;98218.00;;;31.97
40199;BMP280;25906;43.536;26.068;2022-08-19T13:46:11;98218.00;;;31.97
40199;BMP280;25906;43.536;26.068;2022-08-19T13:49:00;98211.56;;;32.03
40199;BMP280;25906;43.536;26.068;2022-08-19T13:51:46;98212.41;;;31.69
40199;BMP280;25906;43.536;26.068;2022-08-19T13:54:32;98224.66;;;31.84
40199;BMP280;25906;43.536;26.068;2022-08-19T13:57:17;98213.66;;;31.74
40199;BMP280;25906;43.536;26.068;2022-08-19T14:00:04;98219.44;;;31.38
40199;BMP280;25906;43.536;26.068;2022-08-19T14:02:52;98215.81;;;31.14
40199;BMP280;25906;43.536;26.068;2022-08-19T14:05:41;98208.00;;;30.88
40199;BMP280;25906;43.536;26.068;2022-08-19T14:08:27;98210.16;;;30.84
40199;BMP280;25906;43.536;26.068;2022-08-19T14:11:13;98210.94;;;30.80
40199;BMP280;25906;43.536;26.068;2022-08-19T14:13:59;98202.03;;;31.04
40199;BMP280;25906;43.536;26.068;2022-08-19T14:16:44;98206.31;;;31.31
40199;BMP280;25906;43.536;26.068;2022-08-19T14:19:29;98208.84;;;31.43
40199;BMP280;25906;43.536;26.068;2022-08-19T14:22:15;98207.06;;;31.59
40199;BMP280;25906;43.536;26.068;2022-08-19T14:25:00;98211.13;;;31.64
40199;BMP280;25906;43.536;26.068;2022-08-19T14:27:46;98203.13;;;31.49
40199;BMP280;25906;43.536;26.068;2022-08-19T14:30:33;98210.13;;;31.50
40199;BMP280;25906;43.536;26.068;2022-08-19T14:33:18;98208.25;;;31.38
40199;BMP280;25906;43.536;26.068;2022-08-19T14:36:04;98199.38;;;31.30
40199;BMP280;25906;43.536;26.068;2022-08-19T14:38:50;98204.56;;;31.18
40199;BMP280;25906;43.536;26.068;2022-08-19T14:41:35;98203.69;;;31.25
40199;BMP280;25906;43.536;26.068;2022-08-19T14:44:21;98200.91;;;31.23
40199;BMP280;25906;43.536;26.068;2022-08-19T14:47:08;98204.22;;;31.31
40199;BMP280;25906;43.536;26.068;2022-08-19T14:49:53;98201.25;;;31.39
40199;BMP280;25906;43.536;26.068;2022-08-19T14:52:39;98197.56;;;31.47
40199;BMP280;25906;43.536;26.068;2022-08-19T14:55:25;98199.69;;;31.46
40199;BMP280;25906;43.536;26.068;2022-08-19T14:58:11;98202.84;;;31.30
40199;BMP280;25906;43.536;26.068;2022-08-19T15:00:58;98202.56;;;31.12
40199;BMP280;25906;43.536;26.068;2022-08-19T15:03:44;98198.66;;;30.99
40199;BMP280;25906;43.536;26.068;2022-08-19T15:06:29;98204.25;;;30.99
40199;BMP280;25906;43.536;26.068;2022-08-19T15:09:15;98200.94;;;30.91
40199;BMP280;25906;43.536;26.068;2022-08-19T15:12:01;98199.47;;;30.94
40199;BMP280;25906;43.536;26.068;2022-08-19T15:14:46;98194.66;;;30.90
40199;BMP280;25906;43.536;26.068;2022-08-19T15:17:35;98197.41;;;30.92
40199;BMP280;25906;43.536;26.068;2022-08-19T15:20:22;98191.88;;;30.88
40199;BMP280;25906;43.536;26.068;2022-08-19T15:23:08;98184.22;;;30.87
40199;BMP280;25906;43.536;26.068;2022-08-19T15:25:54;98189.34;;;31.09
40199;BMP280;25906;43.536;26.068;2022-08-19T15:28:40;98181.34;;;30.91
40199;BMP280;25906;43.536;26.068;2022-08-19T15:31:25;98187.94;;;30.78
40199;BMP280;25906;43.536;26.068;2022-08-19T15:34:12;98179.59;;;30.76
40199;BMP280;25906;43.536;26.068;2022-08-19T15:36:57;98185.31;;;30.70
40199;BMP280;25906;43.536;26.068;2022-08-19T15:39:44;98174.22;;;30.64
40199;BMP280;25906;43.536;26.068;2022-08-19T15:42:31;98170.06;;;30.61
40199;BMP280;25906;43.536;26.068;2022-08-19T15:45:17;98179.81;;;30.64
40199;BMP280;25906;43.536;26.068;2022-08-19T15:48:03;98172.66;;;30.73
40199;BMP280;25906;43.536;26.068;2022-08-19T15:50:49;98175.53;;;30.69
40199;BMP280;25906;43.536;26.068;2022-08-19T15:53:35;98168.72;;;30.60
40199;BMP280;25906;43.536;26.068;2022-08-19T15:56:20;98178.72;;;30.49
40199;BMP280;25906;43.536;26.068;2022-08-19T15:59:05;98173.97;;;30.42
40199;BMP280;25906;43.536;26.068;2022-08-19T16:02:09;98174.72;;;30.40
40199;BMP280;25906;43.536;26.068;2022-08-19T16:05:17;98175.47;;;30.37
40199;BMP280;25906;43.536;26.068;2022-08-19T16:08:21;98164.44;;;30.29
40199;BMP280;25906;43.536;26.068;2022-08-19T16:11:06;98172.81;;;30.29
40199;BMP280;25906;43.536;26.068;2022-08-19T16:13:53;98170.91;;;30.19
40199;BMP280;25906;43.536;26.068;2022-08-19T16:16:38;98173.09;;;30.13
40199;BMP280;25906;43.536;26.068;2022-08-19T16:19:24;98169.03;;;30.08
40199;BMP280;25906;43.536;26.068;2022-08-19T16:22:10;98164.19;;;30.05
40199;BMP280;25906;43.536;26.068;2022-08-19T16:24:56;98165.53;;;30.08
40199;BMP280;25906;43.536;26.068;2022-08-19T16:38:11;98171.59;;;29.80
40199;BMP280;25906;43.536;26.068;2022-08-19T16:40:57;98165.31;;;29.80
40199;BMP280;25906;43.536;26.068;2022-08-19T16:43:44;98168.25;;;29.72
40199;BMP280;25906;43.536;26.068;2022-08-19T16:46:30;98173.44;;;29.53
40199;BMP280;25906;43.536;26.068;2022-08-19T16:49:16;98167.75;;;29.59
40199;BMP280;25906;43.536;26.068;2022-08-19T16:52:01;98174.09;;;29.54
40199;BMP280;25906;43.536;26.068;2022-08-19T16:54:50;98181.09;;;29.55